Atchison, Kansas
Current Conditions -  °F | °C
As of 9:53 AM on Thursday 29 Jan 2015 (Local Time) from KSTJ Reporting Station
Overcast Overcast  
Wind Chill: 30°   Ceiling: 3400
Heat Index: 40°   Visibility: 10mi
Dew Point: 27°   Wind: 23mph
Humidity: 60%   Direction: 340°NNW
Pressure: 30.31"   Gusts: 31mph
Location:  39.56°N, 95.13°W
Report Text: KSTJ 291553Z 34020G27KT 10SM OVC034 04/M03 A3031 RMK AO2 PK WND 35031/1540 SLP266 T00441028 $
Loading
Personal Weather Stations






























Interactive Weather Map New forecast layout! Learn more

10-Day Weather Forecast

Advertisements
Track Severe Weather on mobile